sensor_id;sensor_type;location;lat;lon;timestamp;P1;durP1;ratioP1;P2;durP2;ratioP2
20038;SDS011;21737;42.868;25.320;2023-11-19T00:01:01;4.60;;;2.90;;
20038;SDS011;21737;42.868;25.320;2023-11-19T00:04:05;3.77;;;2.63;;
20038;SDS011;21737;42.868;25.320;2023-11-19T00:07:09;3.90;;;2.70;;
20038;SDS011;21737;42.868;25.320;2023-11-19T00:10:14;4.53;;;3.20;;
20038;SDS011;21737;42.868;25.320;2023-11-19T00:13:17;5.23;;;2.97;;
20038;SDS011;21737;42.868;25.320;2023-11-19T00:16:21;4.30;;;2.77;;
20038;SDS011;21737;42.868;25.320;2023-11-19T00:19:25;5.50;;;2.70;;
20038;SDS011;21737;42.868;25.320;2023-11-19T00:22:28;3.13;;;2.57;;
20038;SDS011;21737;42.868;25.320;2023-11-19T00:25:31;4.23;;;3.00;;
20038;SDS011;21737;42.868;25.320;2023-11-19T00:28:34;6.13;;;3.07;;
20038;SDS011;21737;42.868;25.320;2023-11-19T00:31:41;4.63;;;3.23;;
20038;SDS011;21737;42.868;25.320;2023-11-19T00:34:44;4.20;;;3.10;;
20038;SDS011;21737;42.868;25.320;2023-11-19T00:37:47;4.20;;;3.00;;
20038;SDS011;21737;42.868;25.320;2023-11-19T00:40:50;4.40;;;2.90;;
20038;SDS011;21737;42.868;25.320;2023-11-19T00:43:55;4.40;;;3.17;;
20038;SDS011;21737;42.868;25.320;2023-11-19T00:46:59;4.90;;;3.13;;
20038;SDS011;21737;42.868;25.320;2023-11-19T00:50:04;3.67;;;2.87;;
20038;SDS011;21737;42.868;25.320;2023-11-19T00:53:07;4.37;;;2.70;;
20038;SDS011;21737;42.868;25.320;2023-11-19T00:56:10;3.60;;;2.50;;
20038;SDS011;21737;42.868;25.320;2023-11-19T00:59:18;5.50;;;3.03;;
20038;SDS011;21737;42.868;25.320;2023-11-19T01:02:21;4.27;;;2.80;;
20038;SDS011;21737;42.868;25.320;2023-11-19T01:05:24;4.00;;;2.97;;
20038;SDS011;21737;42.868;25.320;2023-11-19T01:08:27;4.40;;;2.90;;
20038;SDS011;21737;42.868;25.320;2023-11-19T01:11:30;4.77;;;3.23;;
20038;SDS011;21737;42.868;25.320;2023-11-19T01:14:33;7.40;;;4.20;;
20038;SDS011;21737;42.868;25.320;2023-11-19T01:17:40;6.17;;;2.70;;
20038;SDS011;21737;42.868;25.320;2023-11-19T01:20:54;5.60;;;2.47;;
20038;SDS011;21737;42.868;25.320;2023-11-19T01:23:57;3.67;;;2.90;;
20038;SDS011;21737;42.868;25.320;2023-11-19T01:27:02;4.40;;;2.47;;
20038;SDS011;21737;42.868;25.320;2023-11-19T01:30:05;28.57;;;16.40;;
20038;SDS011;21737;42.868;25.320;2023-11-19T01:33:12;6.67;;;4.70;;
20038;SDS011;21737;42.868;25.320;2023-11-19T01:36:17;5.10;;;3.40;;
20038;SDS011;21737;42.868;25.320;2023-11-19T01:39:21;3.53;;;2.60;;
20038;SDS011;21737;42.868;25.320;2023-11-19T01:42:24;2.83;;;2.30;;
20038;SDS011;21737;42.868;25.320;2023-11-19T01:45:30;2.87;;;2.53;;
20038;SDS011;21737;42.868;25.320;2023-11-19T01:48:42;2.73;;;2.10;;
20038;SDS011;21737;42.868;25.320;2023-11-19T01:51:52;3.43;;;2.70;;
20038;SDS011;21737;42.868;25.320;2023-11-19T01:54:54;3.63;;;2.60;;
20038;SDS011;21737;42.868;25.320;2023-11-19T01:57:58;4.27;;;2.87;;
20038;SDS011;21737;42.868;25.320;2023-11-19T02:01:01;2.90;;;2.37;;
20038;SDS011;21737;42.868;25.320;2023-11-19T02:04:06;3.07;;;2.50;;
20038;SDS011;21737;42.868;25.320;2023-11-19T02:07:10;4.90;;;2.90;;
20038;SDS011;21737;42.868;25.320;2023-11-19T02:10:22;3.50;;;2.97;;
20038;SDS011;21737;42.868;25.320;2023-11-19T02:13:27;3.37;;;2.63;;
20038;SDS011;21737;42.868;25.320;2023-11-19T02:16:31;3.03;;;2.20;;
20038;SDS011;21737;42.868;25.320;2023-11-19T02:19:37;3.63;;;2.80;;
20038;SDS011;21737;42.868;25.320;2023-11-19T02:22:57;2.57;;;1.93;;
20038;SDS011;21737;42.868;25.320;2023-11-19T02:26:02;2.60;;;2.20;;
20038;SDS011;21737;42.868;25.320;2023-11-19T02:29:05;4.87;;;2.57;;
20038;SDS011;21737;42.868;25.320;2023-11-19T02:32:10;4.07;;;2.80;;
20038;SDS011;21737;42.868;25.320;2023-11-19T02:35:15;3.37;;;2.47;;
20038;SDS011;21737;42.868;25.320;2023-11-19T02:38:20;2.90;;;2.30;;
20038;SDS011;21737;42.868;25.320;2023-11-19T02:41:28;3.07;;;2.10;;
20038;SDS011;21737;42.868;25.320;2023-11-19T02:44:31;5.90;;;2.57;;
20038;SDS011;21737;42.868;25.320;2023-11-19T02:47:34;3.50;;;2.57;;
20038;SDS011;21737;42.868;25.320;2023-11-19T02:50:38;3.53;;;2.80;;
20038;SDS011;21737;42.868;25.320;2023-11-19T02:53:42;3.80;;;2.43;;
20038;SDS011;21737;42.868;25.320;2023-11-19T02:56:47;3.80;;;2.57;;
20038;SDS011;21737;42.868;25.320;2023-11-19T02:59:57;3.43;;;2.57;;
20038;SDS011;21737;42.868;25.320;2023-11-19T03:03:01;4.23;;;2.40;;
20038;SDS011;21737;42.868;25.320;2023-11-19T03:06:24;3.70;;;2.70;;
20038;SDS011;21737;42.868;25.320;2023-11-19T03:09:29;3.30;;;2.60;;
20038;SDS011;21737;42.868;25.320;2023-11-19T03:12:32;3.83;;;2.83;;
20038;SDS011;21737;42.868;25.320;2023-11-19T03:15:34;3.30;;;2.40;;
20038;SDS011;21737;42.868;25.320;2023-11-19T03:18:37;3.13;;;2.37;;
20038;SDS011;21737;42.868;25.320;2023-11-19T03:21:41;3.93;;;2.60;;
20038;SDS011;21737;42.868;25.320;2023-11-19T03:24:44;5.90;;;2.70;;
20038;SDS011;21737;42.868;25.320;2023-11-19T03:27:51;4.13;;;2.20;;
20038;SDS011;21737;42.868;25.320;2023-11-19T03:30:53;6.17;;;2.90;;
20038;SDS011;21737;42.868;25.320;2023-11-19T03:33:56;4.33;;;2.93;;
20038;SDS011;21737;42.868;25.320;2023-11-19T03:37:06;3.07;;;2.47;;
20038;SDS011;21737;42.868;25.320;2023-11-19T03:40:11;3.63;;;2.57;;
20038;SDS011;21737;42.868;25.320;2023-11-19T03:43:19;4.40;;;2.87;;
20038;SDS011;21737;42.868;25.320;2023-11-19T03:46:22;3.40;;;2.73;;
20038;SDS011;21737;42.868;25.320;2023-11-19T03:52:31;3.73;;;2.97;;
20038;SDS011;21737;42.868;25.320;2023-11-19T03:55:45;5.60;;;3.83;;
20038;SDS011;21737;42.868;25.320;2023-11-19T03:58:48;4.67;;;3.30;;
20038;SDS011;21737;42.868;25.320;2023-11-19T04:01:50;5.80;;;3.20;;
20038;SDS011;21737;42.868;25.320;2023-11-19T04:04:55;4.07;;;3.17;;
20038;SDS011;21737;42.868;25.320;2023-11-19T04:08:07;3.20;;;2.73;;
20038;SDS011;21737;42.868;25.320;2023-11-19T04:11:10;3.97;;;3.00;;
20038;SDS011;21737;42.868;25.320;2023-11-19T04:14:13;3.83;;;2.93;;
20038;SDS011;21737;42.868;25.320;2023-11-19T04:17:15;4.47;;;3.33;;
20038;SDS011;21737;42.868;25.320;2023-11-19T04:20:17;5.97;;;3.43;;
20038;SDS011;21737;42.868;25.320;2023-11-19T04:23:21;5.57;;;3.97;;
20038;SDS011;21737;42.868;25.320;2023-11-19T04:26:29;5.50;;;3.53;;
20038;SDS011;21737;42.868;25.320;2023-11-19T04:29:33;5.70;;;3.30;;
20038;SDS011;21737;42.868;25.320;2023-11-19T04:32:36;4.37;;;3.30;;
20038;SDS011;21737;42.868;25.320;2023-11-19T04:35:39;4.50;;;3.10;;
20038;SDS011;21737;42.868;25.320;2023-11-19T04:38:42;4.07;;;3.00;;
20038;SDS011;21737;42.868;25.320;2023-11-19T04:41:45;6.67;;;3.40;;
20038;SDS011;21737;42.868;25.320;2023-11-19T04:45:03;8.63;;;2.97;;
20038;SDS011;21737;42.868;25.320;2023-11-19T04:48:09;4.67;;;3.03;;
20038;SDS011;21737;42.868;25.320;2023-11-19T04:51:12;5.00;;;3.40;;
20038;SDS011;21737;42.868;25.320;2023-11-19T04:54:18;5.10;;;3.70;;
20038;SDS011;21737;42.868;25.320;2023-11-19T04:57:27;7.07;;;4.80;;
20038;SDS011;21737;42.868;25.320;2023-11-19T05:00:29;5.20;;;3.70;;
20038;SDS011;21737;42.868;25.320;2023-11-19T05:03:33;5.87;;;4.00;;
20038;SDS011;21737;42.868;25.320;2023-11-19T05:06:35;5.13;;;3.87;;
20038;SDS011;21737;42.868;25.320;2023-11-19T05:09:37;6.03;;;3.77;;
20038;SDS011;21737;42.868;25.320;2023-11-19T05:12:40;5.50;;;4.00;;
20038;SDS011;21737;42.868;25.320;2023-11-19T05:15:43;5.57;;;4.10;;
20038;SDS011;21737;42.868;25.320;2023-11-19T05:18:47;7.27;;;4.70;;
20038;SDS011;21737;42.868;25.320;2023-11-19T05:21:50;8.67;;;3.67;;
20038;SDS011;21737;42.868;25.320;2023-11-19T05:24:54;8.10;;;5.03;;
20038;SDS011;21737;42.868;25.320;2023-11-19T05:28:00;5.07;;;3.73;;
20038;SDS011;21737;42.868;25.320;2023-11-19T05:31:03;7.43;;;4.57;;
20038;SDS011;21737;42.868;25.320;2023-11-19T05:34:06;5.37;;;3.93;;
20038;SDS011;21737;42.868;25.320;2023-11-19T05:37:09;5.20;;;3.87;;
20038;SDS011;21737;42.868;25.320;2023-11-19T05:40:12;6.20;;;4.70;;
20038;SDS011;21737;42.868;25.320;2023-11-19T05:43:18;5.97;;;4.20;;
20038;SDS011;21737;42.868;25.320;2023-11-19T05:46:21;6.47;;;3.90;;
20038;SDS011;21737;42.868;25.320;2023-11-19T05:49:29;6.23;;;3.93;;
20038;SDS011;21737;42.868;25.320;2023-11-19T05:52:32;4.80;;;3.43;;
20038;SDS011;21737;42.868;25.320;2023-11-19T05:55:36;10.57;;;4.90;;
20038;SDS011;21737;42.868;25.320;2023-11-19T06:05:28;6.50;;;4.23;;
20038;SDS011;21737;42.868;25.320;2023-11-19T06:08:32;8.20;;;4.83;;
20038;SDS011;21737;42.868;25.320;2023-11-19T06:11:36;6.43;;;4.43;;
20038;SDS011;21737;42.868;25.320;2023-11-19T06:14:38;5.60;;;3.50;;
20038;SDS011;21737;42.868;25.320;2023-11-19T06:17:41;7.37;;;4.67;;
20038;SDS011;21737;42.868;25.320;2023-11-19T06:20:44;5.63;;;4.13;;
20038;SDS011;21737;42.868;25.320;2023-11-19T06:23:55;6.63;;;4.37;;
20038;SDS011;21737;42.868;25.320;2023-11-19T06:26:57;5.73;;;3.80;;
20038;SDS011;21737;42.868;25.320;2023-11-19T06:30:00;6.10;;;4.50;;
20038;SDS011;21737;42.868;25.320;2023-11-19T06:33:03;5.67;;;4.17;;
20038;SDS011;21737;42.868;25.320;2023-11-19T06:36:06;5.27;;;3.80;;
20038;SDS011;21737;42.868;25.320;2023-11-19T06:39:09;7.53;;;4.87;;
20038;SDS011;21737;42.868;25.320;2023-11-19T06:42:12;6.03;;;4.23;;
20038;SDS011;21737;42.868;25.320;2023-11-19T06:45:19;6.07;;;4.60;;
20038;SDS011;21737;42.868;25.320;2023-11-19T06:48:22;7.60;;;4.47;;
20038;SDS011;21737;42.868;25.320;2023-11-19T06:51:27;7.27;;;4.63;;
20038;SDS011;21737;42.868;25.320;2023-11-19T06:54:29;5.20;;;3.87;;
20038;SDS011;21737;42.868;25.320;2023-11-19T06:57:31;7.73;;;4.33;;
20038;SDS011;21737;42.868;25.320;2023-11-19T07:00:36;6.27;;;4.20;;
20038;SDS011;21737;42.868;25.320;2023-11-19T07:03:40;6.83;;;4.70;;
20038;SDS011;21737;42.868;25.320;2023-11-19T07:09:52;8.83;;;5.80;;
20038;SDS011;21737;42.868;25.320;2023-11-19T07:12:56;5.47;;;3.60;;
20038;SDS011;21737;42.868;25.320;2023-11-19T07:15:58;5.03;;;3.67;;
20038;SDS011;21737;42.868;25.320;2023-11-19T07:19:03;6.07;;;3.83;;
20038;SDS011;21737;42.868;25.320;2023-11-19T07:22:05;6.27;;;4.13;;
20038;SDS011;21737;42.868;25.320;2023-11-19T07:25:09;6.33;;;4.13;;
20038;SDS011;21737;42.868;25.320;2023-11-19T07:28:12;5.93;;;4.27;;
20038;SDS011;21737;42.868;25.320;2023-11-19T07:31:23;4.77;;;3.43;;
20038;SDS011;21737;42.868;25.320;2023-11-19T07:34:27;6.00;;;4.57;;
20038;SDS011;21737;42.868;25.320;2023-11-19T07:37:29;6.10;;;4.70;;
20038;SDS011;21737;42.868;25.320;2023-11-19T07:40:38;6.53;;;4.80;;
20038;SDS011;21737;42.868;25.320;2023-11-19T07:43:42;6.50;;;4.40;;
20038;SDS011;21737;42.868;25.320;2023-11-19T07:46:47;8.10;;;4.90;;
20038;SDS011;21737;42.868;25.320;2023-11-19T07:49:50;8.37;;;5.30;;
20038;SDS011;21737;42.868;25.320;2023-11-19T07:52:55;8.57;;;4.60;;
20038;SDS011;21737;42.868;25.320;2023-11-19T07:56:00;7.93;;;4.07;;
20038;SDS011;21737;42.868;25.320;2023-11-19T07:59:03;13.10;;;8.97;;
20038;SDS011;21737;42.868;25.320;2023-11-19T08:02:05;15.97;;;9.97;;
20038;SDS011;21737;42.868;25.320;2023-11-19T08:05:08;7.63;;;5.50;;
20038;SDS011;21737;42.868;25.320;2023-11-19T08:08:11;10.43;;;6.07;;
20038;SDS011;21737;42.868;25.320;2023-11-19T08:11:14;4.93;;;3.70;;
20038;SDS011;21737;42.868;25.320;2023-11-19T08:14:17;7.93;;;4.20;;
20038;SDS011;21737;42.868;25.320;2023-11-19T08:17:21;6.27;;;4.57;;
20038;SDS011;21737;42.868;25.320;2023-11-19T08:20:25;7.30;;;3.93;;
20038;SDS011;21737;42.868;25.320;2023-11-19T08:23:27;4.13;;;3.27;;
20038;SDS011;21737;42.868;25.320;2023-11-19T08:26:30;5.87;;;4.33;;
20038;SDS011;21737;42.868;25.320;2023-11-19T08:29:33;6.37;;;4.10;;
20038;SDS011;21737;42.868;25.320;2023-11-19T08:32:36;8.87;;;5.07;;
20038;SDS011;21737;42.868;25.320;2023-11-19T08:35:39;5.77;;;4.27;;
20038;SDS011;21737;42.868;25.320;2023-11-19T08:38:45;6.87;;;4.37;;
20038;SDS011;21737;42.868;25.320;2023-11-19T08:41:49;6.77;;;3.70;;
20038;SDS011;21737;42.868;25.320;2023-11-19T08:44:53;5.23;;;3.87;;
20038;SDS011;21737;42.868;25.320;2023-11-19T08:47:58;5.67;;;3.67;;
20038;SDS011;21737;42.868;25.320;2023-11-19T08:51:01;7.13;;;4.53;;
20038;SDS011;21737;42.868;25.320;2023-11-19T08:54:04;8.47;;;4.90;;
20038;SDS011;21737;42.868;25.320;2023-11-19T08:57:07;8.70;;;5.30;;
20038;SDS011;21737;42.868;25.320;2023-11-19T09:00:11;4.13;;;3.43;;
20038;SDS011;21737;42.868;25.320;2023-11-19T09:03:16;5.90;;;4.17;;
20038;SDS011;21737;42.868;25.320;2023-11-19T09:06:20;5.67;;;3.30;;
20038;SDS011;21737;42.868;25.320;2023-11-19T09:09:23;4.90;;;3.60;;
20038;SDS011;21737;42.868;25.320;2023-11-19T09:12:30;5.80;;;3.80;;
20038;SDS011;21737;42.868;25.320;2023-11-19T09:15:33;6.10;;;3.43;;
20038;SDS011;21737;42.868;25.320;2023-11-19T09:18:36;6.03;;;3.73;;
20038;SDS011;21737;42.868;25.320;2023-11-19T09:21:40;5.93;;;4.30;;
20038;SDS011;21737;42.868;25.320;2023-11-19T09:24:44;5.60;;;3.17;;
20038;SDS011;21737;42.868;25.320;2023-11-19T09:27:48;4.00;;;3.30;;
20038;SDS011;21737;42.868;25.320;2023-11-19T09:30:52;5.37;;;3.43;;
20038;SDS011;21737;42.868;25.320;2023-11-19T09:33:55;8.67;;;3.87;;
20038;SDS011;21737;42.868;25.320;2023-11-19T09:36:59;6.93;;;3.73;;
20038;SDS011;21737;42.868;25.320;2023-11-19T09:40:03;7.90;;;5.40;;
20038;SDS011;21737;42.868;25.320;2023-11-19T09:43:08;5.73;;;4.40;;
20038;SDS011;21737;42.868;25.320;2023-11-19T09:46:16;7.20;;;3.50;;
20038;SDS011;21737;42.868;25.320;2023-11-19T09:49:21;5.53;;;3.70;;
20038;SDS011;21737;42.868;25.320;2023-11-19T09:52:29;6.43;;;4.33;;
20038;SDS011;21737;42.868;25.320;2023-11-19T09:55:31;14.13;;;8.33;;
20038;SDS011;21737;42.868;25.320;2023-11-19T09:58:37;5.37;;;3.80;;
20038;SDS011;21737;42.868;25.320;2023-11-19T10:01:41;10.27;;;6.73;;
20038;SDS011;21737;42.868;25.320;2023-11-19T10:04:45;5.27;;;3.47;;
20038;SDS011;21737;42.868;25.320;2023-11-19T10:07:53;5.87;;;3.77;;
20038;SDS011;21737;42.868;25.320;2023-11-19T10:10:59;4.83;;;3.67;;
20038;SDS011;21737;42.868;25.320;2023-11-19T10:14:02;9.13;;;6.53;;
20038;SDS011;21737;42.868;25.320;2023-11-19T10:17:07;8.87;;;4.63;;
20038;SDS011;21737;42.868;25.320;2023-11-19T10:20:10;5.03;;;3.93;;
20038;SDS011;21737;42.868;25.320;2023-11-19T10:23:14;7.93;;;4.07;;
20038;SDS011;21737;42.868;25.320;2023-11-19T10:26:19;4.83;;;3.50;;
20038;SDS011;21737;42.868;25.320;2023-11-19T10:29:29;8.90;;;4.77;;
20038;SDS011;21737;42.868;25.320;2023-11-19T10:32:32;5.97;;;4.23;;
20038;SDS011;21737;42.868;25.320;2023-11-19T10:35:36;5.93;;;4.43;;
20038;SDS011;21737;42.868;25.320;2023-11-19T10:38:41;7.17;;;4.93;;
20038;SDS011;21737;42.868;25.320;2023-11-19T10:41:54;11.73;;;5.77;;
20038;SDS011;21737;42.868;25.320;2023-11-19T10:44:59;8.50;;;5.40;;
20038;SDS011;21737;42.868;25.320;2023-11-19T10:48:04;6.93;;;4.83;;
20038;SDS011;21737;42.868;25.320;2023-11-19T10:51:10;7.20;;;4.50;;
20038;SDS011;21737;42.868;25.320;2023-11-19T10:54:18;4.67;;;3.47;;
20038;SDS011;21737;42.868;25.320;2023-11-19T10:57:21;9.77;;;5.27;;
20038;SDS011;21737;42.868;25.320;2023-11-19T11:00:26;5.57;;;3.40;;
20038;SDS011;21737;42.868;25.320;2023-11-19T11:03:38;10.47;;;5.63;;
20038;SDS011;21737;42.868;25.320;2023-11-19T11:06:42;10.47;;;6.20;;
20038;SDS011;21737;42.868;25.320;2023-11-19T11:09:46;6.43;;;4.47;;
20038;SDS011;21737;42.868;25.320;2023-11-19T11:12:52;9.73;;;5.30;;
20038;SDS011;21737;42.868;25.320;2023-11-19T11:16:01;11.47;;;7.57;;
20038;SDS011;21737;42.868;25.320;2023-11-19T11:19:07;10.63;;;5.77;;
20038;SDS011;21737;42.868;25.320;2023-11-19T11:22:11;4.27;;;3.00;;
20038;SDS011;21737;42.868;25.320;2023-11-19T11:28:57;5.43;;;4.03;;
20038;SDS011;21737;42.868;25.320;2023-11-19T11:32:12;5.63;;;3.70;;
20038;SDS011;21737;42.868;25.320;2023-11-19T11:38:28;11.97;;;7.50;;
20038;SDS011;21737;42.868;25.320;2023-11-19T11:41:33;5.27;;;3.23;;
20038;SDS011;21737;42.868;25.320;2023-11-19T11:48:06;4.20;;;2.83;;
20038;SDS011;21737;42.868;25.320;2023-11-19T11:51:11;4.30;;;3.00;;
20038;SDS011;21737;42.868;25.320;2023-11-19T12:00:40;4.40;;;3.50;;
20038;SDS011;21737;42.868;25.320;2023-11-19T12:03:45;10.73;;;3.97;;
20038;SDS011;21737;42.868;25.320;2023-11-19T12:07:05;5.20;;;3.60;;
20038;SDS011;21737;42.868;25.320;2023-11-19T12:10:09;7.23;;;3.20;;
20038;SDS011;21737;42.868;25.320;2023-11-19T12:13:14;3.90;;;2.90;;
20038;SDS011;21737;42.868;25.320;2023-11-19T12:16:18;4.03;;;3.03;;
20038;SDS011;21737;42.868;25.320;2023-11-19T12:19:21;4.87;;;3.77;;
20038;SDS011;21737;42.868;25.320;2023-11-19T12:22:25;5.67;;;3.50;;
20038;SDS011;21737;42.868;25.320;2023-11-19T12:25:29;4.60;;;3.50;;
20038;SDS011;21737;42.868;25.320;2023-11-19T12:28:37;8.47;;;4.53;;
20038;SDS011;21737;42.868;25.320;2023-11-19T12:31:44;6.27;;;3.80;;
20038;SDS011;21737;42.868;25.320;2023-11-19T12:34:48;5.03;;;3.47;;
20038;SDS011;21737;42.868;25.320;2023-11-19T12:37:56;3.47;;;2.90;;
20038;SDS011;21737;42.868;25.320;2023-11-19T12:41:02;4.83;;;2.83;;
20038;SDS011;21737;42.868;25.320;2023-11-19T12:44:10;9.13;;;4.03;;
20038;SDS011;21737;42.868;25.320;2023-11-19T12:47:14;6.10;;;3.87;;
20038;SDS011;21737;42.868;25.320;2023-11-19T12:50:21;6.27;;;3.60;;
20038;SDS011;21737;42.868;25.320;2023-11-19T12:53:26;6.80;;;4.17;;
20038;SDS011;21737;42.868;25.320;2023-11-19T12:56:32;4.50;;;3.57;;
20038;SDS011;21737;42.868;25.320;2023-11-19T12:59:35;7.77;;;5.10;;
20038;SDS011;21737;42.868;25.320;2023-11-19T13:02:48;16.40;;;7.70;;
20038;SDS011;21737;42.868;25.320;2023-11-19T13:05:51;5.77;;;2.67;;
20038;SDS011;21737;42.868;25.320;2023-11-19T13:09:04;3.93;;;2.80;;
20038;SDS011;21737;42.868;25.320;2023-11-19T13:12:16;3.70;;;2.73;;
20038;SDS011;21737;42.868;25.320;2023-11-19T13:15:23;6.30;;;3.67;;
20038;SDS011;21737;42.868;25.320;2023-11-19T13:18:29;6.43;;;3.57;;
20038;SDS011;21737;42.868;25.320;2023-11-19T13:21:36;3.57;;;2.47;;
20038;SDS011;21737;42.868;25.320;2023-11-19T13:24:44;4.97;;;3.63;;
20038;SDS011;21737;42.868;25.320;2023-11-19T13:27:48;5.50;;;3.73;;
20038;SDS011;21737;42.868;25.320;2023-11-19T13:30:51;9.43;;;4.03;;
20038;SDS011;21737;42.868;25.320;2023-11-19T13:33:54;5.07;;;3.63;;
20038;SDS011;21737;42.868;25.320;2023-11-19T13:36:57;6.13;;;3.73;;
20038;SDS011;21737;42.868;25.320;2023-11-19T13:40:00;7.27;;;4.57;;
20038;SDS011;21737;42.868;25.320;2023-11-19T13:43:03;5.30;;;3.17;;
20038;SDS011;21737;42.868;25.320;2023-11-19T13:46:07;6.20;;;3.87;;
20038;SDS011;21737;42.868;25.320;2023-11-19T13:49:14;3.63;;;2.80;;
20038;SDS011;21737;42.868;25.320;2023-11-19T13:52:21;6.23;;;3.77;;
20038;SDS011;21737;42.868;25.320;2023-11-19T13:55:32;5.77;;;4.20;;
20038;SDS011;21737;42.868;25.320;2023-11-19T13:58:35;5.63;;;3.10;;
20038;SDS011;21737;42.868;25.320;2023-11-19T14:01:41;6.17;;;3.40;;
20038;SDS011;21737;42.868;25.320;2023-11-19T14:04:45;3.90;;;3.20;;
20038;SDS011;21737;42.868;25.320;2023-11-19T14:07:51;5.53;;;3.80;;
20038;SDS011;21737;42.868;25.320;2023-11-19T14:10:55;4.37;;;2.80;;
20038;SDS011;21737;42.868;25.320;2023-11-19T14:13:59;5.60;;;3.83;;
20038;SDS011;21737;42.868;25.320;2023-11-19T14:17:04;5.80;;;3.60;;
20038;SDS011;21737;42.868;25.320;2023-11-19T14:20:10;8.83;;;4.33;;
20038;SDS011;21737;42.868;25.320;2023-11-19T14:23:16;7.57;;;5.07;;
20038;SDS011;21737;42.868;25.320;2023-11-19T14:26:19;7.77;;;4.80;;
20038;SDS011;21737;42.868;25.320;2023-11-19T14:29:27;6.53;;;3.77;;
20038;SDS011;21737;42.868;25.320;2023-11-19T14:32:40;6.57;;;3.97;;
20038;SDS011;21737;42.868;25.320;2023-11-19T14:35:44;5.80;;;4.27;;
20038;SDS011;21737;42.868;25.320;2023-11-19T14:38:47;5.90;;;4.40;;
20038;SDS011;21737;42.868;25.320;2023-11-19T14:41:50;7.47;;;4.63;;
20038;SDS011;21737;42.868;25.320;2023-11-19T14:45:17;9.50;;;5.77;;
20038;SDS011;21737;42.868;25.320;2023-11-19T14:48:21;7.97;;;4.57;;
20038;SDS011;21737;42.868;25.320;2023-11-19T14:51:26;7.27;;;4.40;;
20038;SDS011;21737;42.868;25.320;2023-11-19T14:54:33;5.60;;;3.90;;
20038;SDS011;21737;42.868;25.320;2023-11-19T14:57:41;4.53;;;3.53;;
20038;SDS011;21737;42.868;25.320;2023-11-19T15:01:14;4.53;;;3.50;;
20038;SDS011;21737;42.868;25.320;2023-11-19T15:04:18;4.53;;;3.50;;
20038;SDS011;21737;42.868;25.320;2023-11-19T15:07:21;5.30;;;3.87;;
20038;SDS011;21737;42.868;25.320;2023-11-19T15:10:27;8.43;;;4.87;;
20038;SDS011;21737;42.868;25.320;2023-11-19T15:13:33;5.17;;;3.77;;
20038;SDS011;21737;42.868;25.320;2023-11-19T15:16:36;5.13;;;3.83;;
20038;SDS011;21737;42.868;25.320;2023-11-19T15:19:40;5.73;;;4.00;;
20038;SDS011;21737;42.868;25.320;2023-11-19T15:22:46;11.93;;;6.33;;
20038;SDS011;21737;42.868;25.320;2023-11-19T15:25:51;12.67;;;8.00;;
20038;SDS011;21737;42.868;25.320;2023-11-19T15:28:54;13.50;;;8.03;;
20038;SDS011;21737;42.868;25.320;2023-11-19T15:31:58;13.60;;;8.20;;
20038;SDS011;21737;42.868;25.320;2023-11-19T15:35:08;10.17;;;6.87;;
20038;SDS011;21737;42.868;25.320;2023-11-19T15:38:12;13.30;;;7.40;;
20038;SDS011;21737;42.868;25.320;2023-11-19T15:41:15;24.67;;;13.67;;
20038;SDS011;21737;42.868;25.320;2023-11-19T15:44:19;18.33;;;10.70;;
20038;SDS011;21737;42.868;25.320;2023-11-19T15:47:22;16.40;;;10.87;;
20038;SDS011;21737;42.868;25.320;2023-11-19T15:50:26;35.07;;;16.57;;
20038;SDS011;21737;42.868;25.320;2023-11-19T15:53:29;20.07;;;11.13;;
20038;SDS011;21737;42.868;25.320;2023-11-19T15:56:36;18.23;;;12.47;;
20038;SDS011;21737;42.868;25.320;2023-11-19T15:59:40;20.57;;;13.70;;
20038;SDS011;21737;42.868;25.320;2023-11-19T16:02:44;16.57;;;10.63;;
20038;SDS011;21737;42.868;25.320;2023-11-19T16:05:47;25.53;;;15.30;;
20038;SDS011;21737;42.868;25.320;2023-11-19T16:09:06;49.57;;;26.77;;
20038;SDS011;21737;42.868;25.320;2023-11-19T16:12:09;54.07;;;30.03;;
20038;SDS011;21737;42.868;25.320;2023-11-19T16:15:13;50.70;;;29.33;;
20038;SDS011;21737;42.868;25.320;2023-11-19T16:18:36;68.87;;;37.70;;
20038;SDS011;21737;42.868;25.320;2023-11-19T16:21:39;60.73;;;36.40;;
20038;SDS011;21737;42.868;25.320;2023-11-19T16:24:42;91.60;;;54.17;;
20038;SDS011;21737;42.868;25.320;2023-11-19T16:27:46;65.47;;;38.70;;
20038;SDS011;21737;42.868;25.320;2023-11-19T16:30:49;80.93;;;44.70;;
20038;SDS011;21737;42.868;25.320;2023-11-19T16:33:53;70.23;;;43.63;;
20038;SDS011;21737;42.868;25.320;2023-11-19T16:36:56;75.00;;;40.57;;
20038;SDS011;21737;42.868;25.320;2023-11-19T16:39:59;65.40;;;36.80;;
20038;SDS011;21737;42.868;25.320;2023-11-19T16:43:02;54.67;;;28.80;;
20038;SDS011;21737;42.868;25.320;2023-11-19T16:46:05;59.20;;;30.43;;
20038;SDS011;21737;42.868;25.320;2023-11-19T16:49:10;53.80;;;29.60;;
20038;SDS011;21737;42.868;25.320;2023-11-19T16:52:13;48.30;;;27.20;;
20038;SDS011;21737;42.868;25.320;2023-11-19T16:55:17;47.50;;;27.60;;
20038;SDS011;21737;42.868;25.320;2023-11-19T16:58:20;34.43;;;20.60;;
20038;SDS011;21737;42.868;25.320;2023-11-19T17:01:24;36.80;;;22.80;;
20038;SDS011;21737;42.868;25.320;2023-11-19T17:04:29;30.70;;;19.10;;
20038;SDS011;21737;42.868;25.320;2023-11-19T17:07:33;43.00;;;24.40;;
20038;SDS011;21737;42.868;25.320;2023-11-19T17:13:42;39.00;;;24.50;;
20038;SDS011;21737;42.868;25.320;2023-11-19T17:16:44;30.50;;;19.43;;
20038;SDS011;21737;42.868;25.320;2023-11-19T17:19:47;26.53;;;16.93;;
20038;SDS011;21737;42.868;25.320;2023-11-19T17:22:51;30.27;;;16.70;;
20038;SDS011;21737;42.868;25.320;2023-11-19T17:26:00;25.87;;;15.20;;
20038;SDS011;21737;42.868;25.320;2023-11-19T17:29:04;32.00;;;19.60;;
20038;SDS011;21737;42.868;25.320;2023-11-19T17:32:07;24.23;;;15.30;;
20038;SDS011;21737;42.868;25.320;2023-11-19T17:35:11;34.90;;;19.90;;
20038;SDS011;21737;42.868;25.320;2023-11-19T17:38:14;29.27;;;16.93;;
20038;SDS011;21737;42.868;25.320;2023-11-19T17:41:20;30.60;;;19.10;;
20038;SDS011;21737;42.868;25.320;2023-11-19T17:44:24;25.03;;;14.60;;
20038;SDS011;21737;42.868;25.320;2023-11-19T17:47:32;28.20;;;15.73;;
20038;SDS011;21737;42.868;25.320;2023-11-19T17:50:37;32.47;;;17.07;;
20038;SDS011;21737;42.868;25.320;2023-11-19T17:53:39;27.43;;;14.50;;
20038;SDS011;21737;42.868;25.320;2023-11-19T17:56:44;25.13;;;13.90;;
20038;SDS011;21737;42.868;25.320;2023-11-19T17:59:47;26.73;;;15.07;;
20038;SDS011;21737;42.868;25.320;2023-11-19T18:02:52;28.13;;;12.93;;
20038;SDS011;21737;42.868;25.320;2023-11-19T18:05:55;22.73;;;13.90;;
20038;SDS011;21737;42.868;25.320;2023-11-19T18:08:57;25.67;;;13.60;;
20038;SDS011;21737;42.868;25.320;2023-11-19T18:12:01;23.40;;;11.87;;
20038;SDS011;21737;42.868;25.320;2023-11-19T18:15:16;30.57;;;17.23;;
20038;SDS011;21737;42.868;25.320;2023-11-19T18:18:19;79.40;;;42.37;;
20038;SDS011;21737;42.868;25.320;2023-11-19T18:21:24;24.20;;;14.70;;
20038;SDS011;21737;42.868;25.320;2023-11-19T18:24:28;31.30;;;15.90;;
20038;SDS011;21737;42.868;25.320;2023-11-19T18:27:33;28.83;;;15.73;;
20038;SDS011;21737;42.868;25.320;2023-11-19T18:30:37;24.23;;;14.80;;
20038;SDS011;21737;42.868;25.320;2023-11-19T18:33:42;65.60;;;28.60;;
20038;SDS011;21737;42.868;25.320;2023-11-19T18:36:46;32.37;;;18.53;;
20038;SDS011;21737;42.868;25.320;2023-11-19T18:39:49;21.17;;;14.00;;
20038;SDS011;21737;42.868;25.320;2023-11-19T18:42:54;21.47;;;12.77;;